Time;durP1;ratioP1;P1;durP2;ratioP2;P2;SDS_P1;SDS_P2;PMS_P1;PMS_P2;Temp;Humidity;BMP_temperature;BMP_pressure;BME280_temperature;BME280_humidity;BME280_pressure;Samples;Min_cycle;Max_cycle;Signal;HPM_P1;HPM_P2
2021/09/18 00:02:22;;;;;;;12.68;10.07;;;436.00;2355.20;;;;;;5133893;27;20019;-71
2021/09/18 00:04:48;;;;;;;14.13;9.70;;;436.10;2355.20;;;;;;5134241;27;20057;-72
2021/09/18 00:07:14;;;;;;;14.85;9.93;;;436.10;2355.20;;;;;;5134342;27;20027;-71
2021/09/18 00:09:40;;;;;;;15.30;10.48;;;436.00;2355.20;;;;;;5134374;27;20098;-71
2021/09/18 00:12:06;;;;;;;15.43;10.00;;;436.00;2355.20;;;;;;5134476;27;20020;-71
2021/09/18 00:14:32;;;;;;;13.23;9.57;;;436.00;2355.20;;;;;;5134206;27;20305;-71
2021/09/18 00:16:58;;;;;;;12.07;9.75;;;435.90;2355.20;;;;;;5114960;27;20477;-70
2021/09/18 00:19:23;;;;;;;14.75;9.75;;;436.00;2355.20;;;;;;5134192;27;20102;-71
2021/09/18 00:21:50;;;;;;;12.75;9.55;;;435.90;2355.20;;;;;;5134866;27;20053;-72
2021/09/18 00:24:16;;;;;;;12.88;9.75;;;435.80;2355.20;;;;;;5134785;27;20031;-71
2021/09/18 00:26:42;;;;;;;14.13;9.65;;;435.80;2355.20;;;;;;5134437;27;20433;-71
2021/09/18 00:29:07;;;;;;;12.73;9.82;;;435.70;2355.20;;;;;;5115709;27;20106;-71
2021/09/18 00:31:33;;;;;;;13.27;10.07;;;435.70;2355.20;;;;;;5133896;27;20252;-71
2021/09/18 00:33:59;;;;;;;15.23;10.43;;;435.60;2355.20;;;;;;5134038;27;20031;-71
2021/09/18 00:36:25;;;;;;;15.50;10.73;;;435.40;2355.20;;;;;;5133958;27;20048;-71
2021/09/18 00:38:50;;;;;;;14.50;10.38;;;435.40;2355.20;;;;;;5133737;27;20019;-71
2021/09/18 00:41:16;;;;;;;13.65;11.05;;;435.40;2355.20;;;;;;5133591;27;20776;-71
2021/09/18 00:43:48;;;;;;;14.48;11.05;;;435.30;2355.20;;;;;;5133609;27;20050;-71
2021/09/18 00:46:13;;;;;;;16.15;11.05;;;435.30;2355.20;;;;;;5133250;27;20046;-72
2021/09/18 00:48:39;;;;;;;15.85;10.45;;;435.30;2355.20;;;;;;5133680;27;20027;-72
2021/09/18 00:51:05;;;;;;;14.32;11.18;;;435.30;2355.20;;;;;;5133371;27;20031;-70
2021/09/18 00:53:31;;;;;;;13.75;10.55;;;435.30;2355.20;;;;;;5133686;27;20720;-70
2021/09/18 00:55:57;;;;;;;15.88;10.68;;;435.20;2355.20;;;;;;5133648;27;20087;-71
2021/09/18 00:58:23;;;;;;;15.27;11.20;;;435.20;2355.20;;;;;;5133451;27;20023;-71
2021/09/18 01:00:48;;;;;;;14.80;10.65;;;435.20;2355.20;;;;;;5135556;27;20023;-70
2021/09/18 01:03:14;;;;;;;15.88;11.13;;;435.20;2355.20;;;;;;5135975;27;20024;-72
2021/09/18 01:05:39;;;;;;;12.98;10.43;;;410.50;2355.20;;;;;;5136194;27;20067;-70
2021/09/18 01:08:05;;;;;;;12.65;9.88;;;435.20;2355.20;;;;;;5135912;27;20019;-69
2021/09/18 01:10:31;;;;;;;14.38;10.68;;;435.20;2355.20;;;;;;5135764;27;20540;-72
2021/09/18 01:13:08;;;;;;;14.45;10.57;;;435.20;2355.20;;;;;;5136030;27;20026;-71
2021/09/18 01:15:36;;;;;;;14.10;10.48;;;410.50;2355.20;;;;;;5135247;27;20069;-72
2021/09/18 01:18:03;;;;;;;15.30;10.20;;;435.20;2355.20;;;;;;5135633;27;20021;-71
2021/09/18 01:20:30;;;;;;;14.77;10.35;;;435.20;2355.20;;;;;;5135562;27;20043;-71
2021/09/18 01:22:57;;;;;;;12.68;10.07;;;435.20;2355.20;;;;;;5135568;27;20049;-72
2021/09/18 01:25:28;;;;;;;16.45;10.43;;;435.20;2355.20;;;;;;5135716;27;20038;-72
2021/09/18 01:27:54;;;;;;;14.13;10.07;;;435.20;2355.20;;;;;;5135614;27;20019;-72
2021/09/18 01:30:25;;;;;;;12.82;9.93;;;435.20;2355.20;;;;;;5116995;27;20034;-72
2021/09/18 01:32:52;;;;;;;13.75;10.15;;;435.20;2355.20;;;;;;5135578;27;20106;-72
2021/09/18 01:35:18;;;;;;;13.05;9.75;;;435.30;2355.20;;;;;;5135372;27;20023;-72
2021/09/18 01:37:47;;;;;;;12.52;9.98;;;435.30;2355.20;;;;;;5135295;27;20078;-71
2021/09/18 01:40:26;;;;;;;12.30;9.90;;;435.40;2355.20;;;;;;5117053;27;20031;-72
2021/09/18 01:42:52;;;;;;;15.02;9.73;;;435.40;2355.20;;;;;;5135383;27;20107;-71
2021/09/18 01:45:18;;;;;;;12.25;9.57;;;435.30;2355.20;;;;;;5135415;27;20448;-71
2021/09/18 01:47:52;;;;;;;15.55;9.50;;;435.30;2355.20;;;;;;5135156;27;20063;-72
2021/09/18 01:50:28;;;;;;;14.40;9.85;;;435.20;2355.20;;;;;;5135171;27;20030;-72
2021/09/18 01:52:59;;;;;;;14.77;9.77;;;435.20;2355.20;;;;;;5135289;27;20039;-71
2021/09/18 01:55:26;;;;;;;14.10;9.73;;;435.20;2355.20;;;;;;5117167;27;20372;-72
2021/09/18 01:57:54;;;;;;;13.95;10.27;;;410.50;2355.20;;;;;;5135025;27;20023;-73
2021/09/18 02:00:21;;;;;;;14.77;9.60;;;410.50;2355.20;;;;;;5135088;27;20058;-72
2021/09/18 02:02:47;;;;;;;14.70;10.40;;;410.50;2355.20;;;;;;5134916;27;20599;-72
2021/09/18 02:05:17;;;;;;;15.27;10.25;;;410.50;2355.20;;;;;;5134807;27;20069;-72
2021/09/18 02:07:43;;;;;;;14.93;10.32;;;410.50;2355.20;;;;;;5134968;27;20460;-72
2021/09/18 02:10:12;;;;;;;15.00;10.63;;;410.40;2355.20;;;;;;5134736;27;20027;-71
2021/09/18 02:12:37;;;;;;;15.13;10.27;;;410.20;2355.20;;;;;;5135107;27;20380;-70
2021/09/18 02:15:05;;;;;;;17.75;10.25;;;410.20;2355.20;;;;;;5134892;27;20029;-70
2021/09/18 02:17:33;;;;;;;15.93;10.98;;;410.30;2355.20;;;;;;5134723;27;20051;-71
2021/09/18 02:19:59;;;;;;;14.52;10.48;;;410.10;2355.20;;;;;;5134356;27;20023;-69
2021/09/18 02:22:24;;;;;;;17.20;11.05;;;410.10;2355.20;;;;;;5134963;27;20039;-72
2021/09/18 02:24:50;;;;;;;16.33;10.80;;;410.00;2355.20;;;;;;5134462;27;20039;-71
2021/09/18 02:27:16;;;;;;;14.95;11.02;;;410.00;2355.20;;;;;;5134849;27;20072;-71
2021/09/18 02:29:42;;;;;;;16.45;10.77;;;410.00;2355.20;;;;;;5134890;27;20376;-72
2021/09/18 02:32:08;;;;;;;15.73;11.10;;;409.90;2355.20;;;;;;5134459;27;20019;-70
2021/09/18 02:34:34;;;;;;;18.52;11.18;;;409.80;2355.20;;;;;;5134650;28;20035;-71
2021/09/18 02:37:00;;;;;;;14.68;11.10;;;409.90;2355.20;;;;;;5116119;28;20024;-72
2021/09/18 02:39:25;;;;;;;16.20;11.05;;;409.70;2355.20;;;;;;5134676;27;20057;-72
2021/09/18 02:41:51;;;;;;;15.90;10.65;;;409.80;2355.20;;;;;;5134600;28;20368;-71
2021/09/18 02:44:17;;;;;;;16.67;11.23;;;409.70;2355.20;;;;;;5134540;28;20526;-71
2021/09/18 02:46:42;;;;;;;17.67;10.90;;;409.60;2355.20;;;;;;5134416;28;20016;-72
2021/09/18 02:49:08;;;;;;;19.15;11.57;;;409.60;2355.20;;;;;;5136894;27;20050;-71
2021/09/18 02:51:34;;;;;;;18.00;11.68;;;409.60;2355.20;;;;;;5138807;27;20022;-71
2021/09/18 02:53:59;;;;;;;15.93;11.38;;;409.60;2355.20;;;;;;5138585;27;20027;-71
2021/09/18 02:56:25;;;;;;;20.77;11.48;;;409.60;2355.20;;;;;;5138572;27;20031;-71
2021/09/18 02:58:51;;;;;;;18.02;12.57;;;384.90;2329.60;;;;;;5138417;27;20019;-70
2021/09/18 03:01:17;;;;;;;17.25;12.13;;;384.90;2329.60;;;;;;5138417;27;20030;-70
2021/09/18 03:03:43;;;;;;;17.90;11.75;;;384.90;2329.60;;;;;;5138260;27;20107;-71
2021/09/18 03:06:09;;;;;;;16.92;12.15;;;384.90;2329.60;;;;;;5138232;27;20454;-71
2021/09/18 03:08:34;;;;;;;18.48;12.43;;;384.80;2329.60;;;;;;5138272;27;20029;-72
2021/09/18 03:11:01;;;;;;;20.75;12.63;;;384.80;2329.60;;;;;;5138367;27;20058;-71
2021/09/18 03:13:27;;;;;;;18.30;13.02;;;384.70;2329.60;;;;;;5138296;27;20015;-72
2021/09/18 03:15:53;;;;;;;21.65;13.80;;;384.60;2329.60;;;;;;5138171;27;20026;-71
2021/09/18 03:18:18;;;;;;;20.83;14.38;;;384.50;2329.60;;;;;;5138050;27;20424;-71
2021/09/18 03:20:44;;;;;;;22.52;14.25;;;384.50;2329.60;;;;;;5138071;27;20071;-71
2021/09/18 03:23:10;;;;;;;24.33;14.25;;;384.50;2329.60;;;;;;5138157;27;20023;-72
2021/09/18 03:25:36;;;;;;;20.02;13.73;;;384.40;2329.60;;;;;;5137625;27;20472;-71
2021/09/18 03:28:02;;;;;;;23.40;14.13;;;384.50;2329.60;;;;;;5138137;27;20038;-71
2021/09/18 03:30:28;;;;;;;23.38;13.82;;;384.50;2329.60;;;;;;5137720;27;20469;-71
2021/09/18 03:32:53;;;;;;;21.83;13.93;;;384.40;2329.60;;;;;;5137924;27;20098;-71
2021/09/18 03:35:19;;;;;;;23.48;14.10;;;384.50;2329.60;;;;;;5137984;27;20027;-72
2021/09/18 03:37:45;;;;;;;22.85;14.00;;;384.40;2329.60;;;;;;5137712;27;20027;-72
2021/09/18 03:40:11;;;;;;;24.20;14.07;;;384.30;2329.60;;;;;;5137561;27;20023;-72
2021/09/18 03:42:38;;;;;;;23.17;14.32;;;384.30;2329.60;;;;;;5137692;27;20103;-71
2021/09/18 03:45:05;;;;;;;22.67;14.35;;;384.30;2329.60;;;;;;5137743;27;20031;-73
2021/09/18 03:47:30;;;;;;;22.98;13.98;;;384.30;2329.60;;;;;;5137646;27;20027;-71
2021/09/18 03:49:56;;;;;;;20.92;13.48;;;384.30;2329.60;;;;;;5137629;27;20031;-71
2021/09/18 03:52:25;;;;;;;24.30;14.98;;;384.30;2329.60;;;;;;5137653;27;20019;-71
2021/09/18 03:54:55;;;;;;;22.55;13.63;;;384.30;2329.60;;;;;;5137401;27;20529;-71
2021/09/18 03:57:20;;;;;;;24.42;14.50;;;384.30;2329.60;;;;;;5137520;27;20135;-71
2021/09/18 03:59:46;;;;;;;23.88;14.48;;;384.30;2329.60;;;;;;5136178;27;20063;-71
2021/09/18 04:02:12;;;;;;;24.58;14.27;;;384.40;2329.60;;;;;;5137378;27;20418;-71
2021/09/18 04:04:38;;;;;;;25.23;14.38;;;384.40;2329.60;;;;;;5137048;27;20437;-71
2021/09/18 04:07:04;;;;;;;23.27;14.25;;;384.40;2329.60;;;;;;5137289;27;20444;-70
2021/09/18 04:09:30;;;;;;;25.67;14.45;;;384.40;2329.60;;;;;;5136905;27;20031;-71
2021/09/18 04:11:56;;;;;;;25.30;14.52;;;384.40;2329.60;;;;;;5137097;27;20023;-72
2021/09/18 04:14:21;;;;;;;24.38;14.55;;;384.40;2329.60;;;;;;5137160;27;20026;-71
2021/09/18 04:16:48;;;;;;;23.95;14.00;;;384.40;2329.60;;;;;;5136898;27;20023;-71
2021/09/18 04:19:13;;;;;;;24.90;15.05;;;384.40;2329.60;;;;;;5118734;27;20124;-71
2021/09/18 04:21:39;;;;;;;26.25;14.98;;;384.30;2329.60;;;;;;5136965;27;20129;-70
2021/09/18 04:24:05;;;;;;;26.20;15.60;;;384.20;2329.60;;;;;;5136402;27;20031;-71
2021/09/18 04:26:32;;;;;;;27.58;16.38;;;384.10;2329.60;;;;;;5118360;27;20031;-72
2021/09/18 04:28:58;;;;;;;27.60;16.20;;;384.10;2329.60;;;;;;5136975;27;20155;-71
2021/09/18 04:31:24;;;;;;;31.05;17.20;;;384.00;2329.60;;;;;;5136623;27;20023;-71
2021/09/18 04:33:50;;;;;;;27.13;16.98;;;384.00;2329.60;;;;;;5136892;27;20488;-71
2021/09/18 04:36:16;;;;;;;27.77;17.23;;;359.30;2329.60;;;;;;5118110;27;20118;-72
2021/09/18 04:38:42;;;;;;;31.65;17.70;;;359.30;2329.60;;;;;;5136844;27;20367;-71
2021/09/18 04:41:08;;;;;;;28.10;17.17;;;359.20;2329.60;;;;;;5136514;27;20023;-71
2021/09/18 04:43:33;;;;;;;30.33;17.35;;;359.30;2329.60;;;;;;5136564;27;20476;-71
2021/09/18 04:45:59;;;;;;;29.55;16.98;;;359.30;2329.60;;;;;;5136087;27;20039;-71
2021/09/18 04:48:25;;;;;;;29.73;17.90;;;384.00;2329.60;;;;;;5135772;27;20027;-72
2021/09/18 04:50:51;;;;;;;30.02;18.10;;;384.10;2329.60;;;;;;5135580;27;20402;-72
2021/09/18 04:53:17;;;;;;;29.13;17.52;;;384.20;2329.60;;;;;;5136211;27;20457;-72
2021/09/18 04:55:44;;;;;;;30.05;17.98;;;384.20;2329.60;;;;;;5136363;27;20034;-71
2021/09/18 04:58:10;;;;;;;29.13;18.10;;;384.20;2329.60;;;;;;5136238;27;20531;-71
2021/09/18 05:00:36;;;;;;;28.42;17.48;;;384.30;2329.60;;;;;;5136342;27;20027;-71
2021/09/18 05:03:02;;;;;;;30.80;17.20;;;384.30;2329.60;;;;;;5136042;27;20045;-71
2021/09/18 05:05:27;;;;;;;31.50;18.55;;;384.30;2329.60;;;;;;5136219;27;20027;-70
2021/09/18 05:07:53;;;;;;;31.65;16.98;;;384.40;2329.60;;;;;;5136313;27;20492;-71
2021/09/18 05:10:19;;;;;;;30.27;17.38;;;384.40;2329.60;;;;;;5135978;27;20058;-71
2021/09/18 05:12:45;;;;;;;29.88;17.90;;;384.40;2329.60;;;;;;5135606;27;20073;-71
2021/09/18 05:15:11;;;;;;;28.40;17.08;;;384.50;2329.60;;;;;;5135987;27;20102;-71
2021/09/18 05:17:37;;;;;;;29.38;16.33;;;384.40;2329.60;;;;;;5136122;27;20049;-71
2021/09/18 05:20:04;;;;;;;28.02;16.02;;;384.50;2329.60;;;;;;5135649;27;20027;-71
2021/09/18 05:22:30;;;;;;;27.33;16.55;;;384.50;2329.60;;;;;;5135570;27;20110;-71
2021/09/18 05:24:56;;;;;;;25.02;16.15;;;384.60;2329.60;;;;;;5135689;27;20540;-71
2021/09/18 05:27:22;;;;;;;28.13;16.30;;;384.60;2329.60;;;;;;5135874;27;20043;-71
2021/09/18 05:29:47;;;;;;;27.08;15.98;;;384.70;2329.60;;;;;;5117397;27;20522;-71
2021/09/18 05:32:14;;;;;;;27.33;15.73;;;384.80;2329.60;;;;;;5134887;27;20027;-71
2021/09/18 05:34:40;;;;;;;24.48;14.43;;;384.80;2329.60;;;;;;5135564;27;20030;-68
2021/09/18 05:37:06;;;;;;;22.95;14.90;;;384.80;2329.60;;;;;;5135311;27;20094;-70
2021/09/18 05:39:32;;;;;;;22.65;14.48;;;384.90;2329.60;;;;;;5135998;27;20019;-70
2021/09/18 05:41:59;;;;;;;23.13;14.27;;;409.60;2355.20;;;;;;5135097;27;20030;-71
2021/09/18 05:44:24;;;;;;;21.90;14.63;;;409.80;2355.20;;;;;;5134850;27;20023;-71
2021/09/18 05:46:50;;;;;;;22.92;14.68;;;409.70;2355.20;;;;;;5135175;27;20161;-71
2021/09/18 05:49:16;;;;;;;20.58;14.00;;;409.90;2355.20;;;;;;5135579;27;20019;-71
2021/09/18 05:51:42;;;;;;;19.92;13.27;;;410.00;2355.20;;;;;;5135254;27;20034;-71
2021/09/18 05:54:08;;;;;;;21.50;12.85;;;410.10;2355.20;;;;;;5135079;27;20023;-71
2021/09/18 05:56:34;;;;;;;18.38;12.68;;;410.20;2355.20;;;;;;5116640;27;20373;-71
2021/09/18 05:59:00;;;;;;;20.55;13.10;;;410.30;2355.20;;;;;;5135053;27;20027;-70
2021/09/18 06:01:26;;;;;;;18.02;12.07;;;410.40;2355.20;;;;;;5134476;27;20019;-71
2021/09/18 06:03:52;;;;;;;17.95;12.25;;;410.50;2355.20;;;;;;5134985;27;20487;-71
2021/09/18 06:06:17;;;;;;;20.45;12.45;;;410.50;2355.20;;;;;;5135151;27;20038;-71
2021/09/18 06:08:43;;;;;;;20.52;11.48;;;435.20;2355.20;;;;;;5134751;27;20459;-71
2021/09/18 06:11:09;;;;;;;17.17;10.95;;;435.30;2355.20;;;;;;5134993;27;20022;-70
2021/09/18 06:13:35;;;;;;;17.05;11.27;;;435.40;2355.20;;;;;;5116558;27;20026;-71
2021/09/18 06:16:01;;;;;;;17.20;11.07;;;435.40;2355.20;;;;;;5134727;27;20023;-71
2021/09/18 06:18:27;;;;;;;16.48;10.88;;;435.50;2355.20;;;;;;5134629;27;20053;-70
2021/09/18 06:20:53;;;;;;;16.27;10.75;;;435.60;2355.20;;;;;;5134567;27;20123;-71
2021/09/18 06:23:19;;;;;;;13.48;9.88;;;435.70;2355.20;;;;;;5133920;27;20376;-71
2021/09/18 06:25:45;;;;;;;15.10;9.95;;;435.60;2355.20;;;;;;5134564;27;20031;-70
2021/09/18 06:28:12;;;;;;;14.32;9.85;;;435.90;2355.20;;;;;;5134638;27;20019;-71
2021/09/18 06:30:37;;;;;;;13.95;9.52;;;436.00;2355.20;;;;;;5134719;27;20031;-71
2021/09/18 06:33:05;;;;;;;14.48;9.30;;;460.80;2380.80;;;;;;5134526;27;20106;-71
2021/09/18 06:35:30;;;;;;;12.13;8.65;;;460.90;2380.80;;;;;;5134617;28;20137;-72
2021/09/18 06:37:56;;;;;;;11.15;8.02;;;461.00;2380.80;;;;;;5134556;27;20020;-72
2021/09/18 06:40:22;;;;;;;9.70;7.70;;;461.30;2380.80;;;;;;5134458;27;20033;-71
2021/09/18 06:42:48;;;;;;;8.80;7.28;;;486.80;2380.80;;;;;;5134639;27;20038;-71
2021/09/18 06:45:15;;;;;;;11.80;7.78;;;537.70;2406.40;;;;;;5134428;27;20042;-72
2021/09/18 06:47:41;;;;;;;10.52;7.80;;;563.60;2432.00;;;;;;5134518;27;20102;-71
2021/09/18 06:50:08;;;;;;;8.77;6.82;;;614.50;2252.80;;;;;;5134520;27;20534;-72
2021/09/18 06:52:34;;;;;;;9.20;6.70;;;640.30;2022.40;;;;;;5134248;28;20091;-72
2021/09/18 06:54:59;;;;;;;;;;;691.40;1843.20;;;;;;5135003;27;20055;-72
2021/09/18 06:57:25;;;;;;;7.50;6.00;;;717.40;1638.40;;;;;;5134475;27;19903;-72
2021/09/18 06:59:51;;;;;;;7.88;6.60;;;768.00;1484.80;;;;;;5134455;28;20020;-73
2021/09/18 07:02:16;;;;;;;7.00;5.78;;;768.90;1382.40;;;;;;5134295;27;20027;-72
2021/09/18 07:04:42;;;;;;;6.78;5.40;;;819.50;1254.40;;;;;;5134341;28;20114;-73
2021/09/18 07:07:08;;;;;;;6.15;5.55;;;820.10;1177.60;;;;;;5134339;27;20023;-75
2021/09/18 07:09:34;;;;;;;6.38;5.18;;;820.10;1126.40;;;;;;5134413;28;20354;-74
2021/09/18 07:12:00;;;;;;;6.00;5.40;;;845.50;1075.20;;;;;;5134312;28;20027;-72
2021/09/18 07:14:26;;;;;;;7.10;5.45;;;870.80;1024.00;;;;;;5134161;28;20473;-73
2021/09/18 07:16:51;;;;;;;5.63;5.13;;;870.90;1024.00;;;;;;5134148;27;20537;-73
2021/09/18 07:19:17;;;;;;;5.40;4.90;;;871.30;998.40;;;;;;5109185;28;20036;-71
2021/09/18 07:21:43;;;;;;;7.47;5.13;;;845.40;1024.00;;;;;;5111263;28;20074;-71
2021/09/18 07:24:09;;;;;;;5.97;5.07;;;819.90;1100.80;;;;;;5110669;28;20087;-71
2021/09/18 07:26:38;;;;;;;6.82;5.03;;;793.90;1152.00;;;;;;5111380;28;20024;-70
2021/09/18 07:29:04;;;;;;;5.82;4.60;;;743.30;1228.80;;;;;;5111493;27;20030;-71
2021/09/18 07:31:31;;;;;;;7.70;4.60;;;742.50;1280.00;;;;;;5118152;28;20069;-70
2021/09/18 07:33:56;;;;;;;6.70;4.50;;;717.20;1331.20;;;;;;5131234;27;20035;-70
2021/09/18 07:36:22;;;;;;;5.30;4.70;;;691.60;1382.40;;;;;;5130939;27;20121;-70
2021/09/18 07:38:48;;;;;;;5.53;4.80;;;666.50;1433.60;;;;;;5134597;27;20412;-71
2021/09/18 07:41:15;;;;;;;8.23;4.90;;;665.80;1510.40;;;;;;5133815;27;20033;-70
2021/09/18 07:43:42;;;;;;;5.90;4.68;;;640.80;1510.40;;;;;;5134318;27;20027;-70
2021/09/18 07:46:08;;;;;;;5.30;4.53;;;640.50;1561.60;;;;;;5133630;27;20083;-70
2021/09/18 07:48:34;;;;;;;6.43;4.35;;;640.00;1587.20;;;;;;5134197;27;20023;-70
2021/09/18 07:50:59;;;;;;;5.30;4.38;;;614.90;1689.60;;;;;;5134251;27;20080;-74
2021/09/18 07:53:25;;;;;;;4.57;3.70;;;614.60;1689.60;;;;;;5134843;27;20023;-74
2021/09/18 07:55:51;;;;;;;4.85;3.47;;;589.70;1689.60;;;;;;5116990;27;20034;-74
2021/09/18 07:58:17;;;;;;;4.63;3.78;;;614.40;1715.20;;;;;;5115743;27;20034;-76
2021/09/18 08:00:44;;;;;;;4.18;3.35;;;614.40;1664.00;;;;;;5135904;27;20019;-73
2021/09/18 08:03:10;;;;;;;3.80;3.40;;;614.70;1689.60;;;;;;5135077;27;20027;-77
2021/09/18 08:05:36;;;;;;;3.90;3.50;;;640.30;1587.20;;;;;;5115898;27;20039;-72
2021/09/18 08:08:02;;;;;;;4.88;3.35;;;666.50;1484.80;;;;;;5135724;27;20019;-74
2021/09/18 08:10:29;;;;;;;4.95;3.55;;;716.80;1382.40;;;;;;5111890;27;20061;-74
2021/09/18 08:12:54;;;;;;;3.40;3.10;;;717.60;1356.80;;;;;;5114902;27;20392;-73
2021/09/18 08:15:20;;;;;;;3.90;3.47;;;768.80;1228.80;;;;;;5095401;28;20118;-72
2021/09/18 08:17:47;;;;;;;6.43;4.25;;;819.60;1126.40;;;;;;5114200;28;20015;-74
2021/09/18 08:20:17;;;;;;;3.90;3.38;;;845.60;1024.00;;;;;;5112779;27;20067;-72
2021/09/18 08:22:43;;;;;;;6.28;3.75;;;871.30;947.20;;;;;;5114716;28;20058;-77
2021/09/18 08:25:10;;;;;;;7.55;5.18;;;921.90;896.00;;;;;;5113514;27;20040;-72
2021/09/18 08:27:37;;;;;;;3.90;3.50;;;947.40;870.40;;;;;;5114583;28;20469;-73
2021/09/18 08:30:04;;;;;;;5.97;4.20;;;947.80;844.80;;;;;;5119926;27;20469;-69
2021/09/18 08:32:30;;;;;;;6.63;3.67;;;973.00;844.80;;;;;;5134096;27;20047;-71
2021/09/18 08:34:56;;;;;;;3.45;3.00;;;973.50;793.60;;;;;;5134103;27;20063;-71
2021/09/18 08:37:21;;;;;;;4.20;2.70;;;973.60;768.00;;;;;;5115149;27;20035;-74
2021/09/18 08:39:47;;;;;;;3.97;3.58;;;973.60;793.60;;;;;;5134530;27;20069;-74
2021/09/18 08:42:14;;;;;;;3.10;2.80;;;999.20;742.40;;;;;;5133933;27;20373;-74
2021/09/18 08:44:40;;;;;;;3.97;3.10;;;1049.60;716.80;;;;;;5133806;27;20043;-71
2021/09/18 08:47:06;;;;;;;3.72;2.80;;;1024.60;716.80;;;;;;5133192;27;20042;-71
2021/09/18 08:49:32;;;;;;;5.30;2.78;;;1050.20;665.60;;;;;;5133099;27;20114;-72
2021/09/18 08:52:00;;;;;;;3.25;2.58;;;1075.30;640.00;;;;;;5114220;27;20103;-73
2021/09/18 08:54:27;;;;;;;3.92;2.30;;;1075.40;640.00;;;;;;5125417;27;20032;-72
2021/09/18 08:56:52;;;;;;;3.47;2.50;;;1049.90;665.60;;;;;;5134540;27;20026;-71
2021/09/18 08:59:18;;;;;;;3.67;2.72;;;1024.80;665.60;;;;;;5133149;27;20031;-71
2021/09/18 09:01:44;;;;;;;2.95;2.60;;;1050.10;665.60;;;;;;5134477;27;20110;-72
2021/09/18 09:04:10;;;;;;;4.25;2.58;;;1050.10;665.60;;;;;;5132555;27;20042;-71
2021/09/18 09:06:52;;;;;;;4.20;2.70;;;1076.00;614.40;;;;;;5132791;27;20114;-72
2021/09/18 09:09:18;;;;;;;3.50;2.22;;;1075.40;640.00;;;;;;5133244;27;20172;-71
2021/09/18 09:11:49;;;;;;;2.70;2.33;;;1126.40;614.40;;;;;;5133635;27;20023;-72
2021/09/18 09:14:15;;;;;;;2.88;2.00;;;1100.90;614.40;;;;;;5133026;27;20496;-71
2021/09/18 09:17:06;;;;;;;2.08;1.60;;;1101.50;563.20;;;;;;5133422;27;20064;-72
2021/09/18 09:19:39;;;;;;;2.58;1.65;;;1126.50;563.20;;;;;;5132739;27;20050;-70
2021/09/18 09:22:05;;;;;;;2.60;1.60;;;1126.60;563.20;;;;;;5133705;27;20126;-69
2021/09/18 09:24:31;;;;;;;2.00;1.80;;;1152.10;537.60;;;;;;5133184;27;20172;-71
2021/09/18 09:27:13;;;;;;;2.38;1.75;;;1152.80;486.40;;;;;;5133796;27;20026;-69
2021/09/18 09:29:57;;;;;;;2.08;1.70;;;1152.90;486.40;;;;;;5133676;27;20031;-71
2021/09/18 09:32:29;;;;;;;2.10;1.60;;;1178.10;460.80;;;;;;5132760;27;20524;-70
2021/09/18 09:34:57;;;;;;;2.15;1.90;;;1203.20;460.80;;;;;;5132935;27;20533;-69
2021/09/18 09:37:23;;;;;;;1.77;1.60;;;1203.60;435.20;;;;;;5132740;27;20067;-69
2021/09/18 09:39:55;;;;;;;2.65;1.75;;;1203.50;460.80;;;;;;5133361;27;20050;-69
2021/09/18 09:42:33;;;;;;;3.97;2.17;;;1204.00;435.20;;;;;;5132388;27;20019;-70
2021/09/18 09:45:18;;;;;;;2.55;2.20;;;1178.50;435.20;;;;;;5133007;27;20046;-69
2021/09/18 09:47:46;;;;;;;2.50;2.10;;;1203.20;460.80;;;;;;5133413;27;20373;-72
2021/09/18 09:50:13;;;;;;;3.92;1.80;;;1178.10;460.80;;;;;;5131301;27;20161;-72
2021/09/18 09:52:42;;;;;;;3.45;2.30;;;1177.60;486.40;;;;;;5133469;27;20046;-72
2021/09/18 09:55:16;;;;;;;2.90;2.00;;;1177.90;460.80;;;;;;5132592;27;20137;-71
2021/09/18 09:57:56;;;;;;;2.30;2.10;;;1178.10;435.20;;;;;;5132058;27;20034;-71
2021/09/18 10:00:21;;;;;;;3.05;2.45;;;1203.60;460.80;;;;;;5131987;27;20251;-70
2021/09/18 10:02:47;;;;;;;3.80;2.30;;;1229.10;460.80;;;;;;5131829;27;20544;-70
2021/09/18 10:05:14;;;;;;;3.25;2.30;;;1229.60;460.80;;;;;;5121274;27;20388;-70
2021/09/18 10:07:41;;;;;;;2.63;2.40;;;1254.50;486.40;;;;;;5113046;28;20024;-69
2021/09/18 10:10:10;;;;;;;3.50;2.10;;;1229.30;460.80;;;;;;5113936;27;20035;-69
2021/09/18 10:12:37;;;;;;;6.40;2.45;;;1204.00;435.20;;;;;;5131933;27;20661;-69
2021/09/18 10:15:06;;;;;;;2.72;2.20;;;1178.00;460.80;;;;;;5132007;27;20039;-70
2021/09/18 10:17:39;;;;;;;2.35;2.10;;;1178.20;460.80;;;;;;5129553;27;20162;-73
2021/09/18 10:20:15;;;;;;;2.72;2.10;;;1203.80;460.80;;;;;;5130490;27;20031;-70
2021/09/18 10:25:37;;;;;;;3.50;2.75;;;1152.40;512.00;;;;;;5129797;27;20050;-71
2021/09/18 10:28:08;;;;;;;2.42;2.22;;;1076.00;588.80;;;;;;5130738;27;20380;-71
2021/09/18 10:30:44;;;;;;;3.65;2.40;;;1126.40;563.20;;;;;;5131515;27;20045;-71
2021/09/18 10:33:28;;;;;;;2.40;2.20;;;1127.20;512.00;;;;;;5130088;27;20476;-72
2021/09/18 10:36:00;;;;;;;3.13;2.28;;;1178.10;435.20;;;;;;5132062;27;20042;-70
2021/09/18 10:38:30;;;;;;;4.18;2.50;;;1203.70;435.20;;;;;;5131818;28;20037;-73
2021/09/18 10:41:03;;;;;;;2.67;2.47;;;;;;;;;;5132148;27;20042;-70
2021/09/18 10:43:31;;;;;;;4.82;2.40;;;;;;;;;;5130116;28;20080;-69
2021/09/18 10:45:58;;;;;;;2.50;2.30;;;;;;;;;;5130974;27;20157;-69
2021/09/18 10:48:38;;;;;;;3.88;2.42;;;;;;;;;;5111014;28;20019;-69
2021/09/18 10:51:04;;;;;;;3.42;2.30;;;;;;;;;;5130461;27;20070;-68
2021/09/18 10:53:50;;;;;;;2.50;2.28;;;1204.00;435.20;;;;;;5131382;28;20024;-68
2021/09/18 10:56:16;;;;;;;2.72;2.10;;;1203.30;486.40;;;;;;5130385;28;20372;-70
2021/09/18 10:59:05;;;;;;;2.33;2.13;;;1178.50;460.80;;;;;;5132771;27;20027;-69
2021/09/18 11:01:31;;;;;;;3.72;2.30;;;1152.50;512.00;;;;;;5131907;28;20468;-71
2021/09/18 11:03:58;;;;;;;2.60;2.40;;;1126.80;537.60;;;;;;5131219;27;20032;-69
2021/09/18 11:06:40;;;;;;;3.17;2.10;;;1101.70;512.00;;;;;;5132017;28;20346;-69
2021/09/18 11:09:06;;;;;;;2.30;2.07;;;1126.90;537.60;;;;;;5114055;27;20376;-69
2021/09/18 11:11:32;;;;;;;2.92;2.10;;;1152.60;486.40;;;;;;5133939;27;20023;-69
2021/09/18 11:14:00;;;;;;;2.83;2.10;;;1152.40;486.40;;;;;;5117352;27;20130;-69
2021/09/18 11:16:32;;;;;;;2.60;2.30;;;1127.30;486.40;;;;;;5135420;27;20045;-70
2021/09/18 11:18:59;;;;;;;2.80;2.10;;;1177.70;460.80;;;;;;5131617;27;20053;-69
2021/09/18 11:21:43;;;;;;;2.83;2.20;;;1177.70;460.80;;;;;;5114797;27;20035;-68
2021/09/18 11:24:15;;;;;;;2.30;2.10;;;1203.30;435.20;;;;;;5132444;27;20027;-67
2021/09/18 11:26:47;;;;;;;2.50;2.30;;;1203.50;435.20;;;;;;5132612;27;20330;-67
2021/09/18 11:29:37;;;;;;;2.10;1.90;;;1203.60;435.20;;;;;;5133337;27;20015;-69
2021/09/18 11:32:16;;;;;;;3.13;1.70;;;1228.80;460.80;;;;;;5132003;27;20080;-68
2021/09/18 11:34:53;;;;;;;2.97;1.60;;;1152.90;460.80;;;;;;5131813;27;20023;-68
2021/09/18 11:37:31;;;;;;;2.28;1.90;;;1152.50;460.80;;;;;;5133826;27;20026;-68
2021/09/18 11:40:08;;;;;;;2.10;1.60;;;1152.60;460.80;;;;;;5135524;27;20034;-68
2021/09/18 11:42:41;;;;;;;5.72;2.20;;;1126.40;512.00;;;;;;5124581;27;20026;-70
2021/09/18 11:45:11;;;;;;;2.30;2.10;;;1126.90;486.40;;;;;;5134736;27;20111;-68
2021/09/18 11:47:43;;;;;;;2.00;1.80;;;1177.60;435.20;;;;;;5135312;27;20084;-69
2021/09/18 11:50:18;;;;;;;2.33;2.08;;;1126.90;486.40;;;;;;5134741;27;20031;-70
2021/09/18 11:52:44;;;;;;;2.50;2.20;;;1100.90;537.60;;;;;;5135657;27;20377;-67
2021/09/18 11:55:47;;;;;;;3.33;1.77;;;1127.30;486.40;;;;;;5134649;27;20548;-69
2021/09/18 11:58:25;;;;;;;2.58;2.10;;;1075.30;537.60;;;;;;5130191;27;20038;-70
2021/09/18 12:01:04;;;;;;;2.90;2.60;;;1101.00;512.00;;;;;;5134465;27;20042;-67
2021/09/18 12:03:35;;;;;;;2.28;2.08;;;1024.50;563.20;;;;;;5133424;27;20024;-71
2021/09/18 12:06:01;;;;;;;2.80;1.88;;;1024.40;563.20;;;;;;5135058;27;20388;-71
2021/09/18 12:08:29;;;;;;;2.63;2.13;;;973.20;640.00;;;;;;5134659;27;20011;-68
2021/09/18 12:11:08;;;;;;;3.75;2.30;;;947.60;640.00;;;;;;5133675;27;20046;-70
2021/09/18 12:13:39;;;;;;;3.20;2.50;;;948.00;614.40;;;;;;5134969;27;20353;-69
2021/09/18 12:16:05;;;;;;;2.10;1.88;;;972.90;640.00;;;;;;5134175;27;20031;-70
2021/09/18 12:18:34;;;;;;;4.30;2.10;;;921.60;716.80;;;;;;5134300;27;20495;-70